Hualapai Flat, Nevada Weather observations

Data are for 10 minute period ending at time listed.
 Day   Time   Solar   Ave.   Ave.  Ave.  Vector  Max.   Baro.   Total    
  of    of     Rad.   Air    Rel.  Wind   Wind   Wind  Press.  Precip.   
Year   Day            Temp.  Hum.  Speed  Dir.   Gust                    
2015   (PST)  Kw/m2    F      %     mph   deg.    mph    mb.     in.     
-------------------------------------------------------------------------
 109   18:30   0.02   64.3    16    4.2   198     5.4   873.4    0.00 
 109   18:40   0.01   61.9    16    3.5   195     4.8   873.4    0.00 
 109   18:50   0.01   59.5    17    2.2   196     3.8   873.4    0.00 
 109   19:00   0.00   60.5    13    2.9   250     6.9   873.5    0.00 
 109   19:10   0.00   56.1    19    6.9   295     7.9   873.5    0.00 
 109   19:20   0.00   54.5    20    7.3   289     8.2   873.5    0.00 
 109   19:30   0.00   52.9    22    7.7   298     8.8   873.5    0.00 
 109   19:40   0.00   52.2    22    7.2   294     8.8   873.6    0.00 
 109   19:50   0.00   53.7    19    8.0   292     9.2   873.5    0.00 
 109   20:00   0.00   52.1    22    7.9   298     9.1   873.5    0.00 
 109   20:10   0.00   52.1    21    7.9   297     9.3   873.5    0.00 
 109   20:20   0.00   52.0    21    7.7   298     8.8   873.5    0.00 
 109   20:30   0.00   50.9    22    8.0   303     9.1   873.5    0.00 
 109   20:40   0.00   51.4    22    8.0   336    10.5   873.7    0.00 
 109   20:50   0.00   51.7    21    7.1   322     8.1   873.7    0.00 
 109   21:00   0.00   51.1    21    6.7   309     8.2   873.7    0.00 
 109   21:10   0.00   50.4    21    7.5   296     8.4   873.5    0.00 
 109   21:20   0.00   49.2    22    7.9   301     9.0   873.5    0.00 
 109   21:30   0.00   49.7    21    7.7   297     9.0   873.4    0.00 
 109   21:40   0.00   48.4    22    8.3   303     9.4   873.4    0.00 
 109   21:50   0.00   48.2    22    8.1   314     9.9   873.4    0.00 
 109   22:00   0.00   49.3    22    8.0   307     9.2   873.4    0.00 
 109   22:10   0.00   48.7    22    7.9   305     9.3   873.4    0.00 
 109   22:20   0.00   48.3    23    7.3   332     9.2   873.4    0.00 
 109   22:30   0.00   46.5    24    5.3    25     8.4   873.5    0.00 
 109   22:40   0.00   47.3    22    2.5     7     5.4   873.5    0.00 
 109   22:50   0.00   50.6    19    6.6   307     9.1   873.4    0.00 
 109   23:00   0.00   45.9    25    7.1   310     9.1   873.4    0.00 
 109   23:10   0.00   44.1    24    7.4   292     9.1   873.5    0.00 
 109   23:20   0.00   44.8    24    8.3   282    10.2   873.5    0.00 
 109   23:30   0.00   45.9    24    7.0   293     9.2   873.5    0.00 
 109   23:40   0.00   45.6    25    7.2   294     9.5   873.5    0.00 
 109   23:50   0.00   46.3    25    7.0   297     9.8   873.5    0.00 
 110    0:00   0.00   45.5    26    6.9   296     9.1   873.5    0.00 
 110    0:10   0.00   43.8    31    2.9    79     7.8   873.5    0.00 
 110    0:20   0.00   41.6    31    0.9   349     2.3   873.5    0.00 
 110    0:30   0.00   42.6    28    5.1   352     6.1   873.5    0.00 
 110    0:40   0.00   40.8    28    5.9   338     6.7   873.4    0.00 
 110    0:50   0.00   41.3    29    6.0   333     7.5   873.4    0.00 
 110    1:00   0.00   41.2    28    6.4   326     7.6   873.4    0.00 
 110    1:10   0.00   42.5    27    4.4   329     5.8   873.4    0.00 
 110    1:20   0.00   41.1    29    5.1   314     7.6   873.4    0.00 
 110    1:30   0.00   38.3    33    6.7   301     7.8   873.3    0.00 
 110    1:40   0.00   42.3    29    7.2   309     8.9   873.3    0.00 
 110    1:50   0.00   42.3    30    5.1   351     9.3   873.1    0.00 
 110    2:00   0.00   42.9    28    7.4   311     9.2   873.0    0.00 
 110    2:10   0.00   42.5    29    7.6   308     9.3   873.0    0.00 
 110    2:20   0.00   41.5    31    6.2   333     8.6   873.1    0.00 
 110    2:30   0.00   40.0    32    6.8   332     8.6   873.1    0.00 
 110    2:40   0.00   40.5    31    6.1   323     7.1   873.1    0.00 
 110    2:50   0.00   41.5    31    6.1   314     7.7   873.0    0.00 
 110    3:00   0.00   42.3    29    5.4   313     6.9   873.0    0.00 
 110    3:10   0.00   41.2    30    7.1   301     8.1   873.0    0.00 
 110    3:20   0.00   39.9    32    7.1   299     8.4   873.0    0.00 
 110    3:30   0.00   39.8    32    7.5   302     8.6   873.0    0.00 
 110    3:40   0.00   38.9    36    4.5   327     7.7   873.0    0.00 
 110    3:50   0.00   37.0    40    2.0   196     3.7   873.0    0.00 
 110    4:00   0.00   37.1    37    3.1   236     4.3   873.2    0.00 
 110    4:10   0.00   40.8    30    2.7   251     4.4   873.2    0.00 
 110    4:20   0.00   42.8    27    3.4   282     5.7   873.2    0.00 
 110    4:30   0.00   39.5    32    5.5   290     6.1   873.2    0.00 
 110    4:40   0.00   39.6    31    4.9   293     5.8   873.2    0.00 
 110    4:50   0.00   43.8    27    4.8   291     7.2   873.2    0.00 
 110    5:00   0.00   38.7    33    5.6   312     6.9   873.3    0.00 
 110    5:10   0.00   42.2    27    4.3   325     4.7   873.4    0.00 
 110    5:20   0.01   43.3    26    4.6   313     6.7   873.4    0.00 
 110    5:30   0.02   35.6    35    6.2   300     7.4   873.5    0.00 
 110    5:40   0.04   35.2    38    6.4   303     7.3   873.5    0.00 
 110    5:50   0.06   36.0    38    5.8   311     7.1   873.5    0.00 
 110    6:00   0.09   37.3    37    5.7   300     6.7   873.5    0.00 
 110    6:10   0.11   38.7    38    4.1   334     4.9   873.6    0.00 
 110    6:20   0.14   38.3    43    4.1   341     6.1   873.6    0.00 
 110    6:30   0.18   40.5    42    3.6   315     4.5   873.6    0.00 
 110    6:40   0.21   44.6    39    3.5   318     4.3   873.6    0.00 
 110    6:50   0.24   47.1    40    2.1   320     3.2   873.6    0.00 
 110    7:00   0.28   50.7    37    1.1    11     2.6   873.6    0.00 
 110    7:10   0.31   52.9    34    0.6    30     2.2   873.5    0.00 
 110    7:20   0.34   56.3    33    0.2   199     1.4   873.6    0.00 
 110    7:30   0.38   59.8    29    2.0   173     4.3   873.8    0.00 
 110    7:40   0.41   58.5    30    3.5   161     4.2   873.9    0.00 
 110    7:50   0.45   59.1    29    3.2   176     4.1   873.9    0.00 
 110    8:00   0.48   59.2    27    3.6   155     5.5   874.0    0.00 
 110    8:10   0.52   58.2    26    4.0   141     5.6   873.9    0.00 
 110    8:20   0.55   58.1    27    4.6   142     6.8   874.0    0.00 
 110    8:30   0.58   58.4    27    4.7   140     6.6   874.0    0.00 
 110    8:40   0.61   59.2    26    5.1   137     7.3   874.0    0.00 
 110    8:50   0.64   60.2    24    5.1   148     8.3   874.1    0.00 
 110    9:00   0.67   61.7    22    4.9   154     7.9   874.1    0.00 
 110    9:10   0.69   62.7    22    5.2   139     7.8   874.1    0.00 
 110    9:20   0.71   62.4    23    5.6   134     8.3   874.1    0.00 
 110    9:30   0.74   62.8    22    5.2   129     8.6   874.0    0.00 
 110    9:40   0.76   65.0    21    5.4   160     8.8   874.0    0.00 
 110    9:50   0.78   66.2    21    5.2   156     8.3   874.0    0.00 
 110   10:00   0.80   67.6    20    4.4   153     7.6   873.8    0.00 
 110   10:10   0.81   66.4    20    5.5   129     9.7   873.8    0.00 
 110   10:20   0.83   66.1    22    5.6   130    10.4   873.7    0.00 
 110   10:30   0.84   66.9    22    4.4   132     7.7   873.6    0.00 
 110   10:40   0.86   68.2    20    4.5   137     8.0   873.4    0.00 
 110   10:50   0.87   68.1    22    5.3   127     8.6   873.3    0.00 
 110   11:00   0.88   68.5    22    5.8   135    10.2   873.1    0.00 
 110   11:10   0.89   68.4    23    7.0   130    11.2   873.0    0.00 
 110   11:20   0.89   69.8    22    6.5   154    11.8   872.8    0.00 
 110   11:30   0.90   70.9    21    6.6   136    11.3   872.7    0.00 
 110   11:40   0.90   71.0    23    6.1   148    12.0   872.6    0.00 
 110   11:50   0.89   71.7    19    5.3   144    10.4   872.5    0.00 
 110   12:00   0.90   71.9    21    5.3   136    10.1   872.3    0.00 
 110   12:10   0.89   71.5    20    5.9   127    11.0   872.2    0.00 
 110   12:20   0.85   70.9    20    6.1   112    13.2   872.0    0.00 
 110   12:30   0.84   71.9    20    6.0   104    12.2   871.9    0.00 
 110   12:40   0.84   71.2    18    5.1    97     9.6   871.8    0.00 
 110   12:50   0.88   72.1    21    5.2    80     9.9   871.7    0.00 
 110   13:00   0.88   72.6    22    5.3   130     9.9   871.6    0.00 
 110   13:10   0.86   72.7    19    6.7   115    13.4   871.4    0.00 
 110   13:20   0.82   72.9    19    4.1    71     8.5   871.3    0.00 
 110   13:30   0.80   75.6    20    8.0   180    12.6   871.1    0.00 
 110   13:40   0.81   76.4    16    6.7   185    13.4   870.9    0.00 
 110   13:50   0.80   73.5    19    6.3   104    12.1   870.8    0.00 
 110   14:00   0.77   73.0    18    4.5    79    12.0   870.6    0.00 
 110   14:10   0.76   74.7    19    4.3   144     9.5   870.4    0.00 
 110   14:20   0.74   74.3    21    6.9   125    11.1   870.2    0.00 
 110   14:30   0.72   75.7    19    7.0   169    11.2   870.0    0.00 
 110   14:40   0.71   74.8    15    4.7    97    14.0   869.8    0.00 
 110   14:50   0.68   73.9    20    4.5    86     8.0   869.6    0.00 
 110   15:00   0.65   76.7    17    3.2   158     7.4   869.5    0.00 
 110   15:10   0.61   78.5    17    3.3   198     9.6   869.3    0.00 
 110   15:20   0.57   76.9    16    4.8   247     8.9   869.2    0.00 
 110   15:30   0.50   75.1    17    4.9   233     9.7   869.1    0.00 
 110   15:40   0.47   75.0    22    4.6   166     7.7   869.0    0.00 
 110   15:50   0.47   75.7    23    5.0   190    10.9   868.9    0.00 
 110   16:00   0.45   76.3    17    4.4   154     8.1   868.9    0.00 
 110   16:10   0.42   76.4    15    2.8   163     6.0   868.9    0.00 
 110   16:20   0.39   76.3    20    4.8   138     7.2   868.8    0.00 
 110   16:30   0.35   74.9    23    3.8   182     8.2   868.7    0.00 
 110   16:40   0.32   76.5    21    2.7   205     5.0   868.7    0.00 
 110   16:50   0.26   76.0    17    0.6   138     2.3   868.6    0.00 
 110   17:00   0.19   75.2    16    2.7    48     6.5   868.6    0.00 
 110   17:10   0.20   73.8    16    4.1   347    13.2   868.7    0.00 
 110   17:20   0.18   71.8    20    3.5   330     7.9   868.7    0.00 
 110   17:30   0.15   70.7    18    8.6   334    15.3   868.6    0.00 
 110   17:40   0.11   69.2    18    8.7   336    14.2   868.6    0.00 
 110   17:50   0.08   69.5    15    8.8   328    12.8   868.7    0.00 
 110   18:00   0.04   68.7    15    7.7   320    11.5   868.8    0.00 
 110   18:10   0.03   68.3    15    7.1   326    10.5   868.8    0.00 
 110   18:20   0.02   67.1    15    6.7   323     8.7   869.0    0.00 

Return to Hualapai Flat graphs page.


Western Regional Climate Center,wrcc@dri.edu